Time;durP1;ratioP1;P1;durP2;ratioP2;P2;SDS_P1;SDS_P2;PMS_P1;PMS_P2;Temp;Humidity;BMP_temperature;BMP_pressure;BME280_temperature;BME280_humidity;BME280_pressure;Samples;Min_cycle;Max_cycle;Signal;HPM_P1;HPM_P2
2021/01/04 00:01:11;;;;;;;26.67;16.88;;;2.50;1.00;;;;;;4947304;28;20212;-71
2021/01/04 00:04:03;;;;;;;22.88;15.65;;;2.70;1.00;;;;;;4947326;28;20221;-72
2021/01/04 00:06:45;;;;;;;23.10;15.77;;;2.80;99.90;;;;;;4947908;28;20219;-72
2021/01/04 00:09:27;;;;;;;22.13;15.43;;;2.80;99.90;;;;;;4946143;28;20267;-74
2021/01/04 00:12:01;;;;;;;25.13;16.23;;;2.80;99.90;;;;;;4949784;28;20263;-70
2021/01/04 00:14:39;;;;;;;24.05;15.18;;;2.80;99.90;;;;;;4955337;28;20317;-70
2021/01/04 00:17:20;;;;;;;25.70;15.77;;;2.70;99.90;;;;;;4947476;28;20824;-70
2021/01/04 00:19:53;;;;;;;28.63;18.00;;;2.60;99.90;;;;;;4944958;28;20242;-71
2021/01/04 00:22:28;;;;;;;25.50;17.33;;;2.50;1.00;;;;;;4950822;28;20293;-72
2021/01/04 00:25:08;;;;;;;27.20;17.90;;;2.50;1.00;;;;;;4952413;28;20293;-71
2021/01/04 00:27:41;;;;;;;28.77;17.10;;;2.40;1.00;;;;;;4966550;28;20260;-70
2021/01/04 00:30:17;;;;;;;23.63;15.80;;;2.40;1.00;;;;;;4958508;28;20235;-71
2021/01/04 00:32:44;;;;;;;24.65;15.55;;;2.60;1.00;;;;;;4949444;28;20241;-72
2021/01/04 00:35:17;;;;;;;24.48;16.25;;;2.70;99.90;;;;;;4947105;28;20248;-71
2021/01/04 00:38:07;;;;;;;28.73;16.73;;;2.60;99.90;;;;;;4951528;28;20217;-71
2021/01/04 00:40:46;;;;;;;30.05;18.17;;;2.40;99.90;;;;;;4945486;28;20268;-70
2021/01/04 00:43:20;;;;;;;26.90;17.88;;;2.30;1.00;;;;;;4952064;28;20875;-71
2021/01/04 00:45:48;;;;;;;28.40;16.75;;;2.40;1.00;;;;;;4938168;28;20690;-72
2021/01/04 00:48:22;;;;;;;25.88;17.35;;;2.10;1.00;;;;;;4952134;28;20220;-71
2021/01/04 00:51:13;;;;;;;27.48;18.15;;;2.30;1.00;;;;;;4953219;28;20206;-72
2021/01/04 00:53:43;;;;;;;27.58;16.60;;;2.40;1.00;;;;;;4945046;28;20301;-72
2021/01/04 00:56:38;;;;;;;26.60;17.50;;;2.50;1.00;;;;;;4944430;28;20211;-71
2021/01/04 00:59:22;;;;;;;32.00;20.70;;;2.30;1.00;;;;;;4946504;28;20212;-71
2021/01/04 01:02:13;;;;;;;32.92;18.70;;;2.30;1.00;;;;;;4946144;28;20287;-72
2021/01/04 01:04:49;;;;;;;30.98;19.13;;;2.10;1.00;;;;;;4948073;28;20269;-71
2021/01/04 01:07:58;;;;;;;29.30;19.10;;;2.10;1.00;;;;;;4949793;28;20221;-72
2021/01/04 01:10:29;;;;;;;30.08;17.90;;;1.90;1.00;;;;;;4947967;28;20260;-71
2021/01/04 01:13:04;;;;;;;33.00;20.02;;;2.10;1.00;;;;;;4949058;28;20293;-72
2021/01/04 01:15:36;;;;;;;32.03;19.55;;;2.30;1.00;;;;;;4949238;28;20235;-72
2021/01/04 01:18:28;;;;;;;29.85;19.33;;;2.40;1.00;;;;;;4945010;28;20467;-71
2021/01/04 01:20:57;;;;;;;25.38;18.33;;;2.50;1.00;;;;;;4945426;28;20278;-72
2021/01/04 01:23:27;;;;;;;29.35;18.48;;;2.50;1.00;;;;;;4962053;28;20241;-71
2021/01/04 01:26:05;;;;;;;28.23;18.27;;;2.50;1.00;;;;;;4948746;28;20211;-72
2021/01/04 01:29:03;;;;;;;29.38;18.90;;;2.60;1.00;;;;;;4952015;28;20264;-72
2021/01/04 01:32:02;;;;;;;31.90;18.98;;;2.70;1.00;;;;;;4948324;28;20214;-72
2021/01/04 01:34:48;;;;;;;28.67;17.25;;;2.70;1.00;;;;;;4921579;28;20243;-72
2021/01/04 01:37:59;;;;;;;27.38;17.52;;;2.50;1.00;;;;;;4949690;28;20222;-71
2021/01/04 01:41:09;;;;;;;26.67;17.02;;;2.60;1.00;;;;;;4947779;28;20212;-72
2021/01/04 01:43:48;;;;;;;30.48;18.35;;;2.50;1.00;;;;;;4940003;28;20304;-73
2021/01/04 01:46:22;;;;;;;29.42;17.85;;;2.50;1.00;;;;;;4948670;28;20281;-72
2021/01/04 01:49:02;;;;;;;26.95;18.00;;;2.40;1.00;;;;;;4957839;28;20224;-73
2021/01/04 01:52:03;;;;;;;28.05;18.05;;;2.50;1.00;;;;;;4949570;28;20218;-73
2021/01/04 01:54:53;;;;;;;27.70;17.45;;;2.30;1.00;;;;;;4953035;28;20283;-73
2021/01/04 01:57:48;;;;;;;25.13;16.85;;;2.50;1.00;;;;;;4949471;28;20218;-74
2021/01/04 02:00:22;;;;;;;31.63;19.25;;;2.20;1.00;;;;;;4946977;28;20269;-71
2021/01/04 02:03:00;;;;;;;25.35;17.27;;;2.20;1.00;;;;;;4968901;28;20721;-73
2021/01/04 02:05:38;;;;;;;29.10;19.00;;;2.30;1.00;;;;;;4949112;28;20298;-73
2021/01/04 02:08:11;;;;;;;23.75;16.13;;;2.40;1.00;;;;;;4960985;28;20579;-73
2021/01/04 02:10:43;;;;;;;28.42;17.73;;;2.60;1.00;;;;;;4948054;28;20216;-73
2021/01/04 02:13:16;;;;;;;30.83;17.63;;;2.80;99.90;;;;;;4945306;28;20818;-73
2021/01/04 02:15:49;;;;;;;28.20;18.20;;;2.90;99.90;;;;;;4949933;28;20227;-74
2021/01/04 02:18:44;;;;;;;28.20;16.40;;;2.90;99.90;;;;;;4944783;28;20238;-74
2021/01/04 02:21:44;;;;;;;27.48;17.42;;;3.00;99.90;;;;;;4946522;28;20271;-73
2021/01/04 02:24:13;;;;;;;28.58;18.48;;;2.90;99.90;;;;;;4927598;28;20218;-73
2021/01/04 02:26:43;;;;;;;31.08;18.35;;;2.80;99.90;;;;;;4953859;28;20212;-73
2021/01/04 02:29:13;;;;;;;35.60;20.40;;;2.90;99.90;;;;;;4944455;28;20698;-74
2021/01/04 02:31:43;;;;;;;28.80;18.48;;;3.00;99.90;;;;;;4943949;28;20212;-73
2021/01/04 02:34:12;;;;;;;34.03;19.67;;;3.00;99.90;;;;;;4947442;28;20227;-72
2021/01/04 02:36:43;;;;;;;31.30;19.15;;;2.90;99.90;;;;;;4950332;28;20281;-72
2021/01/04 02:39:21;;;;;;;35.53;19.75;;;2.90;99.90;;;;;;4953029;28;20296;-74
2021/01/04 02:42:01;;;;;;;35.15;21.15;;;2.70;99.90;;;;;;4946242;28;20233;-71
2021/01/04 02:44:29;;;;;;;32.65;19.38;;;2.80;99.90;;;;;;4960435;28;20736;-75
2021/01/04 02:47:18;;;;;;;31.90;19.58;;;2.90;99.90;;;;;;4945882;28;20621;-72
2021/01/04 02:49:54;;;;;;;28.17;18.58;;;2.80;99.90;;;;;;4909459;28;20221;-72
2021/01/04 02:52:33;;;;;;;34.28;21.20;;;2.70;99.90;;;;;;4959862;28;20232;-74
2021/01/04 02:55:06;;;;;;;33.83;19.05;;;2.80;99.90;;;;;;4949589;28;20226;-72
2021/01/04 02:57:45;;;;;;;32.53;18.70;;;2.90;99.90;;;;;;4963238;28;20214;-73
2021/01/04 03:00:16;;;;;;;29.80;18.98;;;2.90;99.90;;;;;;4943445;28;20699;-72
2021/01/04 03:02:48;;;;;;;30.38;18.15;;;2.70;99.90;;;;;;4942287;28;20239;-71
2021/01/04 03:05:19;;;;;;;34.05;19.83;;;2.50;1.00;;;;;;4944135;28;20212;-73
2021/01/04 03:07:52;;;;;;;30.05;19.45;;;2.50;1.00;;;;;;4942626;28;20236;-71
2021/01/04 03:10:26;;;;;;;34.35;19.70;;;2.50;1.00;;;;;;4956627;28;20223;-72
2021/01/04 03:13:07;;;;;;;34.78;19.70;;;2.60;1.00;;;;;;4948953;28;20236;-72
2021/01/04 03:15:44;;;;;;;32.88;20.25;;;2.60;1.00;;;;;;4947796;28;20225;-72
2021/01/04 03:18:19;;;;;;;32.20;19.55;;;2.40;99.90;;;;;;4947293;28;20216;-73
2021/01/04 03:20:46;;;;;;;31.90;20.75;;;2.30;1.00;;;;;;4950055;28;20231;-72
2021/01/04 03:23:14;;;;;;;33.25;21.73;;;2.40;1.00;;;;;;4943083;28;20240;-72
2021/01/04 03:25:48;;;;;;;30.75;17.98;;;2.50;1.00;;;;;;4938231;28;20209;-73
2021/01/04 03:28:25;;;;;;;30.15;19.35;;;2.60;1.00;;;;;;4948193;28;20223;-73
2021/01/04 03:30:52;;;;;;;34.00;20.08;;;2.50;1.00;;;;;;4949898;28;20202;-72
2021/01/04 03:33:20;;;;;;;33.80;20.33;;;2.50;1.00;;;;;;4951595;28;20240;-72
2021/01/04 03:35:47;;;;;;;36.60;19.42;;;2.60;1.00;;;;;;4949342;28;20596;-72
2021/01/04 03:38:15;;;;;;;34.80;20.42;;;2.60;1.00;;;;;;4947622;28;20248;-73
2021/01/04 03:40:43;;;;;;;33.60;20.63;;;2.70;1.00;;;;;;4949446;28;20217;-73
2021/01/04 03:43:11;;;;;;;36.03;21.95;;;2.70;1.00;;;;;;4946478;28;20364;-73
2021/01/04 03:45:38;;;;;;;38.03;20.98;;;2.70;1.00;;;;;;4949376;28;20221;-72
2021/01/04 03:48:06;;;;;;;32.95;19.10;;;2.60;1.00;;;;;;4947961;28;20759;-73
2021/01/04 03:50:33;;;;;;;33.80;20.85;;;2.60;1.00;;;;;;4949281;28;20797;-73
2021/01/04 03:53:00;;;;;;;31.08;18.48;;;2.80;1.00;;;;;;4953509;28;20316;-73
2021/01/04 03:55:27;;;;;;;33.55;20.65;;;2.90;1.00;;;;;;4945581;28;20226;-72
2021/01/04 03:57:55;;;;;;;32.13;20.15;;;2.90;99.90;;;;;;4946063;28;20720;-72
2021/01/04 04:00:23;;;;;;;33.67;20.27;;;3.00;99.90;;;;;;4950498;28;20209;-70
2021/01/04 04:02:50;;;;;;;35.40;21.35;;;3.00;99.90;;;;;;4951817;28;20235;-72
2021/01/04 04:05:19;;;;;;;29.50;18.90;;;3.00;99.90;;;;;;4957753;28;20217;-72
2021/01/04 04:07:46;;;;;;;28.35;18.75;;;2.80;99.90;;;;;;4948398;28;20214;-73
2021/01/04 04:10:15;;;;;;;39.10;19.55;;;2.80;99.90;;;;;;4947699;28;20202;-72
2021/01/04 04:12:43;;;;;;;35.28;20.98;;;2.80;99.90;;;;;;4962400;28;20234;-73
2021/01/04 04:15:14;;;;;;;29.33;19.73;;;2.80;99.90;;;;;;4939882;28;20230;-73
2021/01/04 04:17:41;;;;;;;32.60;20.02;;;2.90;99.90;;;;;;4942459;28;20754;-72
2021/01/04 04:20:10;;;;;;;33.92;19.30;;;3.00;99.90;;;;;;4949659;28;20645;-72
2021/01/04 04:22:37;;;;;;;30.33;18.85;;;3.10;99.90;;;;;;4950083;28;20290;-72
2021/01/04 04:25:06;;;;;;;33.05;19.33;;;3.00;99.90;;;;;;4952125;28;20210;-73
2021/01/04 04:27:33;;;;;;;34.45;20.27;;;2.90;99.90;;;;;;4945598;28;20223;-73
2021/01/04 04:30:03;;;;;;;27.08;19.10;;;3.10;99.90;;;;;;4945724;28;20220;-72
2021/01/04 04:32:31;;;;;;;31.88;18.75;;;3.00;99.90;;;;;;4948011;28;20232;-73
2021/01/04 04:34:58;;;;;;;30.60;19.52;;;3.10;99.90;;;;;;4949131;28;20338;-74
2021/01/04 04:37:25;;;;;;;34.70;19.90;;;3.10;99.90;;;;;;4948686;28;20590;-74
2021/01/04 04:39:52;;;;;;;29.13;18.70;;;3.10;99.90;;;;;;4948790;28;20765;-73
2021/01/04 04:42:20;;;;;;;29.35;19.52;;;3.10;99.90;;;;;;4965959;28;20240;-74
2021/01/04 04:44:56;;;;;;;30.80;20.70;;;3.10;99.90;;;;;;4947592;28;20230;-74
2021/01/04 04:47:42;;;;;;;33.60;19.70;;;3.10;99.90;;;;;;4943822;28;20227;-74
2021/01/04 04:50:25;;;;;;;31.65;18.92;;;3.10;99.90;;;;;;4950173;28;20276;-74
2021/01/04 04:53:32;;;;;;;29.65;17.70;;;3.00;99.90;;;;;;4952117;28;20231;-74
2021/01/04 04:56:17;;;;;;;30.35;18.42;;;3.00;99.90;;;;;;4944279;28;20351;-70
2021/01/04 04:58:49;;;;;;;31.08;17.92;;;3.10;99.90;;;;;;4950037;28;20214;-74
2021/01/04 05:01:28;;;;;;;29.77;18.67;;;3.10;86.30;;;;;;4946279;28;20768;-74
2021/01/04 05:04:20;;;;;;;28.38;19.92;;;3.10;80.80;;;;;;4946193;28;20812;-74
2021/01/04 05:06:49;;;;;;;29.77;17.52;;;3.00;1.00;;;;;;4934750;28;20221;-73
2021/01/04 05:09:44;;;;;;;31.45;19.10;;;2.70;99.90;;;;;;4950820;28;20238;-73
2021/01/04 05:12:22;;;;;;;28.90;18.48;;;2.60;1.00;;;;;;4945555;28;22208;-73
2021/01/04 05:14:53;;;;;;;26.85;18.50;;;2.60;99.90;;;;;;4949423;28;20242;-74
2021/01/04 05:17:44;;;;;;;27.63;19.58;;;2.80;99.90;;;;;;4946348;28;20622;-74
2021/01/04 05:20:28;;;;;;;30.00;20.08;;;2.90;99.90;;;;;;4948284;28;20220;-73
2021/01/04 05:23:47;;;;;;;28.65;18.63;;;2.90;99.90;;;;;;4950553;28;20261;-72
2021/01/04 05:26:41;;;;;;;24.50;17.20;;;3.00;99.90;;;;;;4868103;29;20280;-73
2021/01/04 05:29:38;;;;;;;25.17;17.02;;;3.00;99.90;;;;;;4837873;29;20270;-75
2021/01/04 05:32:35;;;;;;;26.20;16.67;;;2.90;99.90;;;;;;4940369;28;20335;-73
2021/01/04 05:35:05;;;;;;;27.42;17.63;;;3.00;99.90;;;;;;4924844;28;20641;-73
2021/01/04 05:37:45;;;;;;;30.10;17.92;;;2.90;99.90;;;;;;4944602;28;20236;-73
2021/01/04 05:40:23;;;;;;;29.35;18.92;;;2.40;99.90;;;;;;4944993;28;20619;-74
2021/01/04 05:43:05;;;;;;;29.70;18.60;;;2.30;1.00;;;;;;4952930;28;20259;-74
2021/01/04 05:45:37;;;;;;;22.60;16.35;;;2.60;1.00;;;;;;4953707;28;20266;-74
2021/01/04 05:48:26;;;;;;;30.70;17.80;;;2.70;99.90;;;;;;4948969;28;20219;-73
2021/01/04 05:51:00;;;;;;;25.77;17.80;;;2.50;99.90;;;;;;4945286;28;20274;-73
2021/01/04 05:53:29;;;;;;;22.95;16.67;;;2.10;1.00;;;;;;4947226;28;20238;-73
2021/01/04 05:55:58;;;;;;;23.88;15.55;;;2.10;1.00;;;;;;4950847;28;20290;-74
2021/01/04 05:58:28;;;;;;;27.08;18.55;;;2.40;1.00;;;;;;4943752;28;20629;-74
2021/01/04 06:01:07;;;;;;;23.88;16.95;;;2.10;1.00;;;;;;4945654;28;20219;-74
2021/01/04 06:03:35;;;;;;;25.95;17.73;;;2.20;1.00;;;;;;4944774;28;20232;-71
2021/01/04 06:06:21;;;;;;;25.33;17.77;;;2.40;1.00;;;;;;4944633;28;20210;-73
2021/01/04 06:09:04;;;;;;;29.23;18.48;;;2.50;1.00;;;;;;4948056;28;20288;-73
2021/01/04 06:11:31;;;;;;;24.90;16.92;;;2.20;1.00;;;;;;4947405;28;20213;-74
2021/01/04 06:14:04;;;;;;;32.55;19.08;;;2.00;1.00;;;;;;4946209;28;20228;-73
2021/01/04 06:16:32;;;;;;;22.60;16.08;;;2.20;1.00;;;;;;4941498;28;20278;-72
2021/01/04 06:19:08;;;;;;;27.67;18.52;;;2.40;1.00;;;;;;4945284;28;20207;-72
2021/01/04 06:21:49;;;;;;;26.45;18.13;;;2.30;1.00;;;;;;4946194;28;20217;-71
2021/01/04 06:24:25;;;;;;;29.00;18.52;;;2.40;1.00;;;;;;4944563;28;20700;-72
2021/01/04 06:26:55;;;;;;;29.15;17.80;;;2.50;1.00;;;;;;4946273;28;20624;-73
2021/01/04 06:29:42;;;;;;;31.02;19.48;;;2.50;1.00;;;;;;4941792;28;20219;-74
2021/01/04 06:32:24;;;;;;;30.88;18.50;;;2.60;99.90;;;;;;4942334;28;20292;-74
2021/01/04 06:34:54;;;;;;;30.90;18.55;;;2.70;99.90;;;;;;4950600;28;20699;-73
2021/01/04 06:37:26;;;;;;;30.38;17.85;;;2.60;99.90;;;;;;4943901;28;20272;-72
2021/01/04 06:40:09;;;;;;;28.40;18.13;;;2.40;1.00;;;;;;4950456;28;20228;-73
2021/01/04 06:42:39;;;;;;;30.45;18.52;;;2.30;1.00;;;;;;4949202;28;20243;-72
2021/01/04 06:45:16;;;;;;;61.50;33.22;;;2.50;1.00;;;;;;4952819;28;20199;-73
2021/01/04 06:47:52;;;;;;;47.13;24.45;;;2.70;1.00;;;;;;4945029;28;20360;-75
2021/01/04 06:50:28;;;;;;;35.50;22.13;;;2.70;99.90;;;;;;4941492;28;20793;-73
2021/01/04 06:53:49;;;;;;;30.15;18.30;;;2.70;99.90;;;;;;4952522;28;20917;-72
2021/01/04 06:56:57;;;;;;;26.70;18.05;;;2.70;99.90;;;;;;4947421;28;20645;-72
2021/01/04 06:59:55;;;;;;;31.30;19.33;;;2.80;99.90;;;;;;4948500;28;20248;-72
2021/01/04 07:03:12;;;;;;;27.15;16.75;;;2.70;99.90;;;;;;4949954;28;20278;-73
2021/01/04 07:05:58;;;;;;;30.83;19.52;;;2.70;99.90;;;;;;4950989;28;20755;-73
2021/01/04 07:09:04;;;;;;;32.47;18.27;;;2.80;99.90;;;;;;4953978;28;20227;-72
2021/01/04 07:11:44;;;;;;;26.98;17.25;;;2.90;99.90;;;;;;4905973;28;20741;-73
2021/01/04 07:14:30;;;;;;;27.52;19.27;;;3.00;99.90;;;;;;4948605;28;20637;-73
2021/01/04 07:17:32;;;;;;;27.00;18.10;;;3.10;99.90;;;;;;4957020;28;20205;-73
2021/01/04 07:20:19;;;;;;;33.58;19.58;;;3.10;99.90;;;;;;4954538;28;20254;-73
2021/01/04 07:22:58;;;;;;;30.20;18.98;;;3.10;78.10;;;;;;4962330;28;20724;-71
2021/01/04 07:25:35;;;;;;;28.10;18.92;;;3.00;19.70;;;;;;4955494;28;20619;-72
2021/01/04 07:28:12;;;;;;;34.65;18.75;;;2.90;99.90;;;;;;4953001;28;20213;-72
2021/01/04 07:30:58;;;;;;;28.35;19.17;;;2.40;99.90;;;;;;4950413;28;20613;-72
2021/01/04 07:33:40;;;;;;;28.80;17.23;;;2.10;1.00;;;;;;4954937;28;20248;-71
2021/01/04 07:36:14;;;;;;;28.48;19.08;;;2.00;1.00;;;;;;4951712;28;20729;-75
2021/01/04 07:38:58;;;;;;;32.22;21.13;;;2.40;1.00;;;;;;4949655;28;20208;-73
2021/01/04 07:41:38;;;;;;;29.70;18.45;;;2.60;1.00;;;;;;4949136;28;20281;-74
2021/01/04 07:44:35;;;;;;;31.33;19.52;;;2.70;99.90;;;;;;4946626;28;20698;-71
2021/01/04 07:47:34;;;;;;;28.05;17.42;;;2.60;99.90;;;;;;4943285;28;20209;-73
2021/01/04 07:50:46;;;;;;;30.52;19.10;;;2.60;99.90;;;;;;4947541;28;20756;-75
2021/01/04 07:53:51;;;;;;;27.40;20.10;;;2.80;99.90;;;;;;4950944;28;20234;-75
2021/01/04 07:56:41;;;;;;;32.30;18.65;;;3.00;99.90;;;;;;4945605;28;21646;-75
2021/01/04 07:59:45;;;;;;;27.52;18.50;;;2.90;99.90;;;;;;4948517;28;20749;-74
2021/01/04 08:02:44;;;;;;;30.70;18.70;;;2.70;99.90;;;;;;4919992;28;20640;-74
2021/01/04 08:05:39;;;;;;;27.27;18.58;;;2.80;99.90;;;;;;4943497;28;20207;-74
2021/01/04 08:08:27;;;;;;;27.45;18.98;;;2.90;99.90;;;;;;4940137;28;20216;-76
2021/01/04 08:11:38;;;;;;;27.65;18.10;;;2.90;99.90;;;;;;4936981;28;20220;-76
2021/01/04 08:14:45;;;;;;;31.15;18.60;;;2.90;99.90;;;;;;4938031;28;20213;-73
2021/01/04 08:17:19;;;;;;;27.23;19.27;;;3.00;99.90;;;;;;4951692;28;20205;-74
2021/01/04 08:19:52;;;;;;;31.35;18.42;;;3.10;99.90;;;;;;4961388;28;20214;-74
2021/01/04 08:22:38;;;;;;;30.23;17.77;;;3.10;99.90;;;;;;4949432;28;21018;-75
2021/01/04 08:25:11;;;;;;;28.90;18.60;;;3.00;99.90;;;;;;4947632;28;20218;-75
2021/01/04 08:27:55;;;;;;;27.88;18.77;;;3.00;99.90;;;;;;4950830;28;20217;-75
2021/01/04 08:30:28;;;;;;;29.98;18.27;;;3.10;99.90;;;;;;4948513;28;20214;-77
2021/01/04 08:33:01;;;;;;;29.30;20.15;;;3.10;99.90;;;;;;4948838;28;20229;-75
2021/01/04 08:35:38;;;;;;;27.25;19.67;;;3.10;99.90;;;;;;4941524;28;20239;-75
2021/01/04 08:38:21;;;;;;;31.10;18.67;;;3.20;99.90;;;;;;4940998;28;20231;-76
2021/01/04 08:40:55;;;;;;;27.60;18.25;;;3.10;99.90;;;;;;4949614;28;20278;-76
2021/01/04 08:43:41;;;;;;;34.20;21.65;;;3.20;99.90;;;;;;4947088;28;20254;-75
2021/01/04 08:46:17;;;;;;;29.25;18.67;;;3.20;61.60;;;;;;4948804;28;20211;-75
2021/01/04 08:48:45;;;;;;;29.75;18.40;;;3.20;96.50;;;;;;4949413;28;20215;-74
2021/01/04 08:51:26;;;;;;;29.05;19.95;;;3.30;45.50;;;;;;4952725;28;20257;-75
2021/01/04 08:53:54;;;;;;;36.15;21.92;;;3.10;9.90;;;;;;4952083;28;20218;-74
2021/01/04 08:56:29;;;;;;;36.38;21.08;;;3.20;99.90;;;;;;4946406;28;20709;-74
2021/01/04 08:59:08;;;;;;;31.15;19.92;;;3.30;1.00;;;;;;4962906;28;20215;-73
2021/01/04 09:01:36;;;;;;;33.03;20.13;;;3.30;1.00;;;;;;4945762;28;20291;-74
2021/01/04 09:04:06;;;;;;;30.98;19.33;;;3.30;1.00;;;;;;4943610;28;20276;-75
2021/01/04 09:06:37;;;;;;;30.08;18.90;;;3.10;99.90;;;;;;4948961;28;20632;-76
2021/01/04 09:09:11;;;;;;;28.60;18.70;;;3.20;99.90;;;;;;4946245;28;20225;-72
2021/01/04 09:11:42;;;;;;;31.20;19.23;;;3.20;99.90;;;;;;4943958;28;20211;-74
2021/01/04 09:14:24;;;;;;;26.30;17.80;;;3.20;99.90;;;;;;4949610;28;20719;-74
2021/01/04 09:16:51;;;;;;;26.00;17.30;;;3.20;99.90;;;;;;4949234;28;20742;-75
2021/01/04 09:19:23;;;;;;;28.35;18.48;;;3.30;99.90;;;;;;4949366;28;20214;-75
2021/01/04 09:22:04;;;;;;;26.67;18.38;;;3.20;99.90;;;;;;4948762;28;20259;-73
2021/01/04 09:24:35;;;;;;;27.25;17.70;;;3.20;99.90;;;;;;4945315;28;20212;-73
2021/01/04 09:27:18;;;;;;;30.13;18.33;;;3.30;99.90;;;;;;4949770;28;20318;-73
2021/01/04 09:29:50;;;;;;;27.38;19.30;;;3.30;99.90;;;;;;4941734;28;20223;-74
2021/01/04 09:32:26;;;;;;;22.98;18.48;;;3.00;99.90;;;;;;4940449;28;20224;-75
2021/01/04 09:34:53;;;;;;;23.75;17.48;;;3.10;99.90;;;;;;4941675;28;20210;-76
2021/01/04 09:37:24;;;;;;;26.48;17.63;;;3.20;99.90;;;;;;4940074;28;20216;-73
2021/01/04 09:39:58;;;;;;;29.02;17.55;;;3.20;99.90;;;;;;4938038;28;20207;-75
2021/01/04 09:42:27;;;;;;;24.75;18.40;;;3.30;99.90;;;;;;4949375;28;20232;-74
2021/01/04 09:44:55;;;;;;;31.90;19.08;;;3.30;97.70;;;;;;4950810;28;20608;-74
2021/01/04 09:47:29;;;;;;;29.85;19.10;;;3.40;1.00;;;;;;4949019;28;20228;-75
2021/01/04 09:50:01;;;;;;;28.10;17.88;;;3.30;1.00;;;;;;4947487;28;20202;-73
2021/01/04 09:52:38;;;;;;;29.85;17.85;;;3.40;1.00;;;;;;4944857;28;20298;-71
2021/01/04 09:55:10;;;;;;;27.50;17.50;;;3.30;1.00;;;;;;4948260;28;20307;-71
2021/01/04 09:57:42;;;;;;;28.42;18.02;;;3.20;99.90;;;;;;4943822;28;20324;-71
2021/01/04 10:00:19;;;;;;;28.17;18.55;;;3.10;99.90;;;;;;4941858;28;20214;-71
2021/01/04 10:02:47;;;;;;;28.60;18.55;;;3.00;99.90;;;;;;4947594;28;20312;-71
2021/01/04 10:05:15;;;;;;;26.35;18.25;;;3.00;99.90;;;;;;4939858;28;20205;-72
2021/01/04 10:07:44;;;;;;;25.35;17.52;;;3.10;99.90;;;;;;4941978;28;20267;-72
2021/01/04 10:10:15;;;;;;;25.67;18.85;;;3.20;99.90;;;;;;4952243;28;20202;-71
2021/01/04 10:12:42;;;;;;;24.30;16.52;;;3.30;99.90;;;;;;4964398;28;20239;-71
2021/01/04 10:15:18;;;;;;;27.25;16.75;;;3.20;99.90;;;;;;4946379;28;20238;-71
2021/01/04 10:18:00;;;;;;;25.80;17.60;;;3.30;99.90;;;;;;4957486;28;20208;-71
2021/01/04 10:20:37;;;;;;;25.85;16.08;;;3.40;1.00;;;;;;4948086;28;20264;-71
2021/01/04 10:23:06;;;;;;;26.40;17.05;;;3.30;1.00;;;;;;4944192;28;20230;-71
2021/01/04 10:25:38;;;;;;;28.55;17.95;;;3.30;1.00;;;;;;4964154;28;20214;-71
2021/01/04 10:28:07;;;;;;;27.20;17.35;;;3.30;1.00;;;;;;4952337;28;20199;-71
2021/01/04 10:30:35;;;;;;;27.10;17.58;;;3.30;1.00;;;;;;4954440;28;20263;-74
2021/01/04 10:33:05;;;;;;;27.42;16.70;;;3.50;99.90;;;;;;4953440;28;20246;-72
2021/01/04 10:35:33;;;;;;;26.85;18.73;;;3.60;99.90;;;;;;4954386;28;20240;-72
2021/01/04 10:38:09;;;;;;;26.98;17.20;;;3.60;39.40;;;;;;4945531;28;20580;-71
2021/01/04 10:40:45;;;;;;;28.00;17.95;;;3.30;99.90;;;;;;4943824;28;20208;-71
2021/01/04 10:43:18;;;;;;;24.55;17.10;;;3.40;99.90;;;;;;4945446;28;20230;-71
2021/01/04 10:46:17;;;;;;;22.70;16.73;;;3.50;99.90;;;;;;4941162;28;20208;-72
2021/01/04 10:48:58;;;;;;;23.85;16.52;;;3.50;99.90;;;;;;4945314;28;20280;-72
2021/01/04 10:51:27;;;;;;;24.83;16.75;;;3.50;98.80;;;;;;4938955;28;20212;-72
2021/01/04 10:53:55;;;;;;;25.05;17.42;;;3.50;25.30;;;;;;4943403;29;20265;-71
2021/01/04 10:56:42;;;;;;;27.00;17.13;;;3.50;99.90;;;;;;4948728;28;20229;-72
2021/01/04 10:59:23;;;;;;;23.38;16.30;;;3.40;1.00;;;;;;4965868;28;20382;-71
2021/01/04 11:01:55;;;;;;;22.67;16.05;;;3.60;99.90;;;;;;4942975;28;20247;-73
2021/01/04 11:04:23;;;;;;;25.15;16.23;;;3.60;1.00;;;;;;4945070;28;20743;-71
2021/01/04 11:07:02;;;;;;;22.90;15.35;;;3.70;99.90;;;;;;4954783;28;20212;-71
2021/01/04 11:09:35;;;;;;;22.15;15.55;;;3.30;99.90;;;;;;4951502;28;20255;-71
2021/01/04 11:12:10;;;;;;;21.30;14.98;;;3.30;99.90;;;;;;4950292;28;20230;-73
2021/01/04 11:14:38;;;;;;;22.67;14.88;;;3.40;99.90;;;;;;4948792;28;20737;-71
2021/01/04 11:17:12;;;;;;;22.50;14.85;;;3.40;99.90;;;;;;4952420;28;20227;-72
2021/01/04 11:19:39;;;;;;;20.90;15.05;;;3.40;31.20;;;;;;4950093;28;20736;-72
2021/01/04 11:22:11;;;;;;;20.30;15.05;;;3.40;99.90;;;;;;4948226;28;20235;-73
2021/01/04 11:24:39;;;;;;;23.60;14.70;;;3.50;99.90;;;;;;4948854;28;20241;-72
2021/01/04 11:27:07;;;;;;;18.02;13.43;;;3.50;99.90;;;;;;4952293;28;20204;-71
2021/01/04 11:29:38;;;;;;;21.42;14.65;;;3.50;99.90;;;;;;4948019;28;20676;-72
2021/01/04 11:32:06;;;;;;;20.02;13.82;;;3.50;99.90;;;;;;4952282;28;20232;-71
2021/01/04 11:34:33;;;;;;;25.75;15.43;;;3.40;1.00;;;;;;4945367;28;20213;-73
2021/01/04 11:37:00;;;;;;;24.23;15.02;;;3.30;1.00;;;;;;4947427;28;20647;-72
2021/01/04 11:39:27;;;;;;;22.73;14.00;;;3.20;99.90;;;;;;4950701;28;20212;-73
2021/01/04 11:41:55;;;;;;;24.30;16.83;;;3.00;99.90;;;;;;4950926;28;20227;-72
2021/01/04 11:44:23;;;;;;;22.00;14.77;;;3.00;99.90;;;;;;4962617;28;20250;-71
2021/01/04 11:46:50;;;;;;;22.08;15.73;;;3.20;1.00;;;;;;4948843;28;20202;-72
2021/01/04 11:49:17;;;;;;;19.45;12.38;;;3.20;99.90;;;;;;4952236;28;20207;-71
2021/01/04 11:51:44;;;;;;;22.42;13.68;;;3.20;1.00;;;;;;4952212;28;20291;-72
2021/01/04 11:54:13;;;;;;;20.52;14.00;;;3.30;99.90;;;;;;4951692;28;20222;-72
2021/01/04 11:56:43;;;;;;;18.73;12.38;;;3.30;1.00;;;;;;4952397;28;20247;-72
2021/01/04 11:59:11;;;;;;;23.20;12.40;;;3.20;1.00;;;;;;4958717;28;20231;-71
2021/01/04 12:01:38;;;;;;;18.75;11.80;;;3.00;99.90;;;;;;4947838;28;20267;-72
2021/01/04 12:04:07;;;;;;;18.90;12.57;;;3.10;1.00;;;;;;4943665;28;20228;-71
2021/01/04 12:06:35;;;;;;;18.58;12.80;;;3.20;1.00;;;;;;4955700;28;20208;-71
2021/01/04 12:09:03;;;;;;;18.23;12.95;;;3.10;1.00;;;;;;4952732;28;20231;-72
2021/01/04 12:11:36;;;;;;;16.10;11.07;;;3.10;99.90;;;;;;4966220;28;20284;-72
2021/01/04 12:14:05;;;;;;;21.00;12.45;;;3.00;1.00;;;;;;4954644;28;20669;-73
2021/01/04 12:16:34;;;;;;;17.13;11.45;;;2.90;99.90;;;;;;4949590;28;20295;-72
2021/01/04 12:19:02;;;;;;;14.25;10.02;;;3.00;24.60;;;;;;4956876;28;20306;-72
2021/01/04 12:21:29;;;;;;;14.25;10.02;;;3.10;1.00;;;;;;4954967;28;20220;-73
2021/01/04 12:23:56;;;;;;;13.05;9.85;;;3.10;99.90;;;;;;4962745;28;20215;-72
2021/01/04 12:26:23;;;;;;;15.52;10.30;;;3.10;1.00;;;;;;4953665;28;20207;-72
2021/01/04 12:28:51;;;;;;;14.98;9.85;;;3.10;99.90;;;;;;4965421;28;20214;-72
2021/01/04 12:31:18;;;;;;;14.98;10.63;;;3.10;99.90;;;;;;4972991;28;20688;-72
2021/01/04 12:33:49;;;;;;;14.18;10.68;;;3.00;71.90;;;;;;4957256;28;20287;-72
2021/01/04 12:36:18;;;;;;;14.60;9.68;;;3.00;15.90;;;;;;4954697;28;20228;-73
2021/01/04 12:38:46;;;;;;;14.95;12.25;;;2.90;38.00;;;;;;4967626;28;20230;-72
2021/01/04 12:41:13;;;;;;;14.25;11.40;;;2.80;99.90;;;;;;4953467;28;20214;-73
2021/01/04 12:43:41;;;;;;;11.77;10.40;;;2.80;99.90;;;;;;4955310;28;20248;-73
2021/01/04 12:46:08;;;;;;;12.73;9.80;;;2.70;99.90;;;;;;4964342;28;20212;-71
2021/01/04 12:48:38;;;;;;;11.57;8.60;;;2.60;99.90;;;;;;4959426;28;20234;-72
2021/01/04 12:51:08;;;;;;;12.82;9.23;;;2.50;99.90;;;;;;4959719;28;20292;-72
2021/01/04 12:53:35;;;;;;;11.82;8.25;;;2.60;99.90;;;;;;4963574;28;20319;-73
2021/01/04 12:56:04;;;;;;;9.73;7.28;;;2.80;79.70;;;;;;4959780;28;21110;-73
2021/01/04 12:58:32;;;;;;;8.98;7.35;;;2.70;21.10;;;;;;4956305;28;20247;-72
2021/01/04 13:00:59;;;;;;;10.30;7.40;;;2.70;99.90;;;;;;4968478;28;20272;-73
2021/01/04 13:03:44;;;;;;;10.35;7.30;;;2.80;99.90;;;;;;4955640;28;20241;-73
2021/01/04 13:06:20;;;;;;;9.00;7.13;;;3.20;66.60;;;;;;4956299;28;20291;-69
2021/01/04 13:08:48;;;;;;;9.40;7.70;;;3.10;99.90;;;;;;4944198;28;20903;-72
2021/01/04 13:11:16;;;;;;;7.93;6.03;;;3.00;99.90;;;;;;4949297;28;20231;-72
2021/01/04 13:13:47;;;;;;;9.48;6.65;;;3.00;99.90;;;;;;4956755;28;20232;-72
2021/01/04 13:16:15;;;;;;;10.13;7.50;;;2.80;99.90;;;;;;4947243;28;20245;-72
2021/01/04 13:18:42;;;;;;;9.65;8.18;;;2.80;99.90;;;;;;4955467;28;20662;-72
2021/01/04 13:21:16;;;;;;;10.77;7.35;;;2.80;99.90;;;;;;4957853;28;20611;-72
2021/01/04 13:23:45;;;;;;;8.88;6.72;;;2.90;99.90;;;;;;4956826;28;20238;-73
2021/01/04 13:26:13;;;;;;;8.23;7.10;;;2.80;99.90;;;;;;4953158;28;20238;-73
2021/01/04 13:28:40;;;;;;;11.35;8.27;;;2.90;99.90;;;;;;4943117;28;20223;-74